Terminal Aerodrome Forecast
Issued by NWS

Home | Current Version | Previous Version | Text Only | Print | Product List | Glossary On
Versions: 1 2 3 4 5 6 7 8 9 10 11 12 13
000
FTUS45 KTFX 221740
TAFBZN
TAF
KBZN 221740Z 2218/2318 17008KT P6SM FEW060
     FM222300 VRB05KT P6SM BKN060
     FM230300 12008KT P6SM -SHSN BKN050
     FM231300 VRB05KT P6SM SCT025 BKN040=

USA.gov is the U.S. government's official web portal to all federal, state and local government web resources and services.